Time;durP1;ratioP1;P1;durP2;ratioP2;P2;SDS_P1;SDS_P2;PMS_P1;PMS_P2;Temp;Humidity;BMP_temperature;BMP_pressure;BME280_temperature;BME280_humidity;BME280_pressure;Samples;Min_cycle;Max_cycle;Signal;HPM_P1;HPM_P2
2022/06/14 00:00:57;;;;;;;2.10;0.70;;;;;;;12.67;59.43;100951.62;1675184;84;21577;-93
2022/06/14 00:03:45;;;;;;;0.80;0.60;;;;;;;12.61;59.25;100951.84;1650670;84;21549;-93
2022/06/14 00:06:33;;;;;;;1.52;0.72;;;;;;;12.57;59.78;100952.01;1656483;85;21053;-89
2022/06/14 00:09:18;;;;;;;1.92;0.60;;;;;;;12.64;60.22;100955.68;1680943;84;21604;-88
2022/06/14 00:11:46;;;;;;;3.75;0.60;;;;;;;12.70;60.21;100958.54;1681326;83;21031;-85
2022/06/14 00:14:13;;;;;;;1.10;0.40;;;;;;;12.63;59.77;100956.57;1681574;84;21589;-93
2022/06/14 00:16:41;;;;;;;2.35;0.68;;;;;;;12.58;59.96;100957.22;1681327;84;21047;-85
2022/06/14 00:19:08;;;;;;;1.70;0.70;;;;;;;12.58;60.18;100961.17;1681336;84;21067;-93
2022/06/14 00:21:56;;;;;;;2.72;0.57;;;;;;;12.63;60.67;100956.57;1681411;84;21078;-93
2022/06/14 00:24:26;;;;;;;0.78;0.50;;;;;;;12.64;60.12;100955.68;1695015;84;21054;-92
2022/06/14 00:26:52;;;;;;;0.50;0.40;;;;;;;12.60;60.06;100957.16;1681594;83;21920;-91
2022/06/14 00:29:20;;;;;;;0.85;0.53;;;;;;;12.53;60.07;100961.78;1681190;83;21486;-92
2022/06/14 00:31:47;;;;;;;1.55;0.80;;;;;;;12.47;60.11;100956.30;1681463;84;21075;-92
2022/06/14 00:34:14;;;;;;;0.82;0.40;;;;;;;12.44;60.33;100962.09;1681543;83;21620;-90
2022/06/14 00:36:47;;;;;;;1.07;0.50;;;;;;;12.45;60.56;100964.69;1681270;84;21624;-92
2022/06/14 00:39:14;;;;;;;2.23;0.70;;;;;;;12.41;60.59;100967.47;1680580;84;21122;-92
2022/06/14 00:41:45;;;;;;;0.70;0.53;;;;;;;12.44;60.93;100966.04;1681589;84;21490;-93
2022/06/14 00:44:29;;;;;;;0.82;0.60;;;;;;;12.41;60.64;100970.09;1681464;84;21051;-92
2022/06/14 00:47:12;;;;;;;1.50;0.60;;;;;;;12.34;60.75;100969.93;1680291;84;21075;-91
2022/06/14 00:49:51;;;;;;;2.83;0.50;;;;;;;12.33;61.12;100969.05;1680412;84;21070;-92
2022/06/14 00:52:41;;;;;;;2.95;0.62;;;;;;;12.30;61.18;100970.93;1681068;84;21783;-91
2022/06/14 00:55:14;;;;;;;2.08;0.80;;;;;;;12.26;61.19;100972.36;1681366;84;21054;-91
2022/06/14 00:57:55;;;;;;;1.47;0.68;;;;;;;12.26;61.53;100970.19;1681127;84;21012;-92
2022/06/14 01:00:28;;;;;;;1.03;0.60;;;;;;;12.28;61.81;100963.97;1681213;84;21106;-91
2022/06/14 01:03:00;;;;;;;1.07;0.55;;;;;;;12.32;61.58;100970.43;1681679;84;21027;-90
2022/06/14 01:06:06;;;;;;;1.65;0.60;;;;;;;12.24;61.46;100968.06;1681413;83;21160;-91
2022/06/14 01:08:51;;;;;;;1.72;0.62;;;;;;;12.20;61.71;100965.16;1681233;84;21077;-91
2022/06/14 01:11:26;;;;;;;3.27;0.70;;;;;;;12.17;61.98;100969.20;1650417;84;21082;-87
2022/06/14 01:13:54;;;;;;;1.55;0.60;;;;;;;12.11;61.74;100974.22;1636488;85;21071;-91
2022/06/14 01:16:21;;;;;;;2.40;0.55;;;;;;;12.10;62.07;100972.94;1642012;85;21534;-90
2022/06/14 01:18:49;;;;;;;2.17;0.70;;;;;;;12.09;61.98;100975.18;1645139;85;21122;-90
2022/06/14 01:21:16;;;;;;;1.03;0.50;;;;;;;12.09;62.44;100974.72;1650703;85;21107;-86
2022/06/14 01:23:43;;;;;;;1.62;0.47;;;;;;;12.12;62.59;100978.55;1659445;85;21020;-90
2022/06/14 01:26:16;;;;;;;1.17;0.47;;;;;;;12.13;62.49;100975.00;1659504;85;21103;-85
2022/06/14 01:28:48;;;;;;;1.37;0.50;;;;;;;12.13;62.56;100976.31;1655742;85;21864;-91
2022/06/14 01:31:17;;;;;;;1.55;0.53;;;;;;;12.12;62.63;100985.58;1655059;85;21071;-91
2022/06/14 01:33:49;;;;;;;1.70;0.55;;;;;;;12.12;62.80;100992.15;1654757;85;21056;-91
2022/06/14 01:36:24;;;;;;;2.65;0.90;;;;;;;12.17;63.15;100987.14;1654879;85;21118;-91
2022/06/14 01:38:52;;;;;;;1.35;0.72;;;;;;;12.21;63.44;100987.42;1654857;85;21032;-91
2022/06/14 01:41:45;;;;;;;0.85;0.50;;;;;;;12.25;63.39;100989.52;1655032;85;21035;-91
2022/06/14 01:44:34;;;;;;;1.40;0.60;;;;;;;12.26;63.55;100985.96;1643886;85;21620;-85
2022/06/14 01:47:31;;;;;;;1.95;0.70;;;;;;;12.28;63.58;100990.72;1683591;83;21561;-86
2022/06/14 01:53:42;;;;;;;1.00;0.45;;;;;;;12.07;63.25;100984.88;1662497;85;21059;-89
2022/06/14 01:56:17;;;;;;;0.95;0.50;;;;;;;11.88;63.54;100994.67;1654838;85;21072;-90
2022/06/14 01:59:29;;;;;;;1.90;0.68;;;;;;;11.76;63.48;100993.28;1654898;85;21131;-91
2022/06/14 02:02:22;;;;;;;0.55;0.37;;;;;;;11.64;64.05;100998.94;1654764;85;21035;-90
2022/06/14 02:05:28;;;;;;;1.87;0.60;;;;;;;11.65;64.44;100998.02;1654996;85;21108;-91
2022/06/14 02:08:09;;;;;;;2.58;0.70;;;;;;;11.67;64.53;101008.48;1662698;85;21063;-90
2022/06/14 02:11:00;;;;;;;1.63;0.60;;;;;;;11.61;64.73;101014.33;1654863;85;21557;-92
2022/06/14 02:13:35;;;;;;;2.17;0.70;;;;;;;11.69;64.98;101013.22;1654663;85;21164;-91
2022/06/14 02:16:08;;;;;;;1.50;0.60;;;;;;;11.70;64.83;101016.27;1654287;85;21079;-91
2022/06/14 02:18:49;;;;;;;1.32;0.62;;;;;;;11.68;64.62;101012.36;1639627;85;21067;-91
2022/06/14 02:21:21;;;;;;;1.52;0.60;;;;;;;11.68;64.92;101011.51;1648562;85;20988;-92
2022/06/14 02:24:06;;;;;;;2.45;0.60;;;;;;;11.68;64.99;101018.92;1649616;86;21131;-91
2022/06/14 02:26:43;;;;;;;1.20;0.70;;;;;;;11.71;65.18;101010.95;1654838;85;21723;-91
2022/06/14 02:29:16;;;;;;;1.30;0.70;;;;;;;11.79;65.31;101015.96;1649785;86;21091;-92
2022/06/14 02:32:07;;;;;;;0.90;0.70;;;;;;;11.85;65.49;101013.13;1654247;85;21067;-89
2022/06/14 02:34:45;;;;;;;2.25;0.78;;;;;;;11.87;65.25;101017.06;1654798;85;21086;-91
2022/06/14 02:37:17;;;;;;;0.95;0.70;;;;;;;11.87;65.21;101015.30;1654073;86;21052;-91
2022/06/14 02:40:11;;;;;;;0.98;0.70;;;;;;;11.88;65.43;101016.14;1649648;86;21586;-92
2022/06/14 02:42:43;;;;;;;3.80;0.80;;;;;;;11.93;65.64;101018.17;1653689;85;21068;-92
2022/06/14 02:45:19;;;;;;;3.37;0.75;;;;;;;11.97;65.44;101022.41;1652712;85;21640;-86
2022/06/14 02:48:00;;;;;;;2.45;0.70;;;;;;;11.99;65.57;101021.91;1649828;86;21055;-91
2022/06/14 02:50:33;;;;;;;2.97;0.83;;;;;;;12.01;65.52;101032.77;1654376;85;21065;-85
2022/06/14 02:53:28;;;;;;;2.42;0.75;;;;;;;12.03;65.62;101028.33;1654569;85;21154;-92
2022/06/14 02:56:00;;;;;;;1.85;0.80;;;;;;;12.10;65.81;101030.75;1654229;85;21004;-91
2022/06/14 02:58:53;;;;;;;2.92;0.80;;;;;;;12.12;65.58;101036.36;1654998;85;21644;-92
2022/06/14 03:01:46;;;;;;;4.37;0.80;;;;;;;12.18;65.75;101044.49;1654982;85;21013;-91
2022/06/14 03:04:46;;;;;;;2.22;0.70;;;;;;;12.20;65.70;101037.42;1654964;85;21044;-92
2022/06/14 03:08:07;;;;;;;0.98;0.70;;;;;;;12.23;65.37;101038.17;1655038;85;21147;-93
2022/06/14 03:11:16;;;;;;;2.10;0.90;;;;;;;12.15;65.59;101041.52;1654863;85;21028;-93
2022/06/14 03:14:25;;;;;;;4.35;0.88;;;;;;;12.16;65.55;101039.28;1656362;85;21036;-92
2022/06/14 03:17:37;;;;;;;1.77;0.90;;;;;;;12.17;65.47;101038.39;1659894;85;21075;-93
2022/06/14 03:20:40;;;;;;;1.98;1.00;;;;;;;12.20;66.00;101047.94;1611621;87;21071;-91
2022/06/14 03:23:35;;;;;;;2.87;1.10;;;;;;;12.25;65.70;101060.48;1624279;87;21116;-86
2022/06/14 03:26:35;;;;;;;1.90;0.85;;;;;;;12.25;65.92;101054.76;1624795;87;21046;-92
2022/06/14 03:29:13;;;;;;;3.60;0.85;;;;;;;12.23;65.57;101056.57;1624998;87;21047;-92
2022/06/14 03:31:54;;;;;;;1.57;0.80;;;;;;;12.30;65.89;101059.84;1624985;87;21070;-90
2022/06/14 03:34:46;;;;;;;3.10;0.95;;;;;;;12.30;65.76;101065.56;1622835;87;21019;-92
2022/06/14 03:37:30;;;;;;;2.05;1.00;;;;;;;12.31;65.79;101068.61;1618042;87;21153;-88
2022/06/14 03:40:16;;;;;;;2.77;0.80;;;;;;;12.32;65.94;101075.11;1635509;86;21084;-88
2022/06/14 03:43:08;;;;;;;1.60;0.90;;;;;;;12.31;65.80;101071.23;1604307;86;21053;-88
2022/06/14 03:45:50;;;;;;;1.85;1.00;;;;;;;12.36;65.76;101066.66;1618191;86;21063;-88
2022/06/14 03:48:39;;;;;;;3.87;0.90;;;;;;;12.31;65.72;101069.92;1602393;88;21564;-88
2022/06/14 03:51:27;;;;;;;2.05;0.88;;;;;;;12.30;65.94;101069.05;1618250;87;21119;-88
2022/06/14 03:54:23;;;;;;;2.40;0.98;;;;;;;12.33;65.94;101075.50;1597742;86;21039;-88
2022/06/14 03:57:37;;;;;;;1.65;1.00;;;;;;;12.32;66.05;101075.58;1616217;86;21091;-87
2022/06/14 04:00:49;;;;;;;3.97;1.20;;;;;;;12.32;66.07;101067.69;1599868;86;21390;-87
2022/06/14 04:04:04;;;;;;;2.37;0.75;;;;;;;12.35;66.24;101066.27;1604636;88;21083;-86
2022/06/14 04:07:19;;;;;;;2.30;0.80;;;;;;;12.34;66.02;101072.45;1620356;87;21047;-87
2022/06/14 04:10:33;;;;;;;1.52;0.80;;;;;;;12.31;65.86;101079.12;1604941;87;21012;-87
2022/06/14 04:13:42;;;;;;;2.00;0.85;;;;;;;12.25;65.82;101082.36;1620864;86;21037;-86
2022/06/14 04:16:29;;;;;;;1.85;0.80;;;;;;;12.19;65.94;101083.88;1623604;86;21079;-87
2022/06/14 04:19:49;;;;;;;1.80;0.80;;;;;;;12.25;66.48;101084.13;1640122;84;21032;-87
2022/06/14 04:22:47;;;;;;;1.50;0.80;;;;;;;12.31;66.37;101085.23;1651121;85;21107;-87
2022/06/14 04:25:52;;;;;;;3.70;1.00;;;;;;;12.35;66.42;101085.98;1648386;85;21059;-87
2022/06/14 04:28:40;;;;;;;1.57;0.72;;;;;;;12.39;66.55;101087.62;1648012;85;21100;-88
2022/06/14 04:31:42;;;;;;;3.22;0.90;;;;;;;12.43;66.24;101090.07;1647639;85;21075;-88
2022/06/14 04:34:38;;;;;;;2.47;0.95;;;;;;;12.45;66.41;101084.77;1648322;85;20996;-88
2022/06/14 04:37:26;;;;;;;2.25;0.80;;;;;;;12.50;66.58;101082.39;1595849;88;21226;-89
2022/06/14 04:40:08;;;;;;;1.92;0.95;;;;;;;12.55;66.41;101082.21;1605285;85;21117;-89
2022/06/14 04:43:06;;;;;;;3.02;0.90;;;;;;;12.61;66.60;101075.88;1657899;85;21063;-88
2022/06/14 04:46:16;;;;;;;2.60;1.00;;;;;;;12.69;66.47;101073.84;1642155;85;21568;-88
2022/06/14 04:49:10;;;;;;;3.12;1.00;;;;;;;12.70;66.51;101074.27;1670195;84;21075;-89
2022/06/14 04:52:06;;;;;;;1.57;0.98;;;;;;;12.76;66.58;101075.83;1721676;82;21149;-88
2022/06/14 04:55:04;;;;;;;2.25;1.02;;;;;;;12.81;66.40;101073.89;1656162;85;21490;-88
2022/06/14 04:57:51;;;;;;;2.33;1.00;;;;;;;12.85;66.42;101078.12;1705990;82;21482;-87
2022/06/14 05:00:32;;;;;;;4.22;1.17;;;;;;;12.89;66.55;101073.16;1712963;82;21110;-88
2022/06/14 05:03:16;;;;;;;1.65;1.00;;;;;;;12.92;66.33;101075.68;1719851;82;21211;-87
2022/06/14 05:05:56;;;;;;;3.20;1.17;;;;;;;12.93;66.39;101079.55;1709213;82;21332;-82
2022/06/14 05:08:28;;;;;;;2.08;1.20;;;;;;;12.97;66.36;101081.64;1710929;82;21437;-95
2022/06/14 05:11:17;;;;;;;2.67;0.90;;;;;;;13.02;66.45;101080.99;1711132;82;21039;-87
2022/06/14 05:13:59;;;;;;;5.15;1.20;;;;;;;13.08;66.55;101079.48;1710011;82;21532;-88
2022/06/14 05:16:36;;;;;;;2.87;0.80;;;;;;;13.16;66.37;101080.48;1710695;82;21081;-90
2022/06/14 05:19:14;;;;;;;3.67;1.10;;;;;;;13.18;66.18;101081.30;1689936;82;21139;-89
2022/06/14 05:22:08;;;;;;;3.47;0.98;;;;;;;13.22;66.21;101087.30;1714643;82;21433;-91
2022/06/14 05:24:38;;;;;;;2.22;0.88;;;;;;;13.29;66.23;101085.73;1715823;82;21026;-91
2022/06/14 05:27:27;;;;;;;2.58;0.90;;;;;;;13.35;66.05;101091.23;1719319;82;21465;-90
2022/06/14 05:30:19;;;;;;;2.45;1.00;;;;;;;13.42;66.01;101087.47;1719315;82;21289;-86
2022/06/14 05:32:58;;;;;;;3.00;1.00;;;;;;;13.50;66.01;101091.13;1718348;82;21077;-91
2022/06/14 05:35:48;;;;;;;3.98;0.98;;;;;;;13.55;65.98;101079.94;1715356;82;20920;-87
2022/06/14 05:38:26;;;;;;;7.45;1.10;;;;;;;13.71;65.94;101088.11;1718625;82;28139;-95
2022/06/14 05:41:02;;;;;;;4.00;1.00;;;;;;;13.71;65.94;101088.11;1718091;83;21083;-94
2022/06/14 05:43:43;;;;;;;3.77;0.98;;;;;;;13.78;65.87;101085.65;1719728;81;21093;-93
2022/06/14 05:46:21;;;;;;;2.65;0.90;;;;;;;13.86;65.56;101086.67;1719407;81;21164;-91
2022/06/14 05:48:53;;;;;;;2.87;1.05;;;;;;;13.89;65.30;101083.91;1719224;82;21525;-90
2022/06/14 05:51:33;;;;;;;2.67;0.90;;;;;;;13.92;65.07;101083.31;1707334;82;21029;-87
2022/06/14 05:54:18;;;;;;;6.17;1.12;;;;;;;13.94;64.90;101084.55;1699090;82;21039;-86
2022/06/14 05:57:11;;;;;;;3.85;1.15;;;;;;;13.96;64.70;101087.53;1716686;82;21066;-88
2022/06/14 05:59:43;;;;;;;5.40;1.25;;;;;;;14.00;64.83;101083.87;1725280;82;21100;-84
2022/06/14 06:02:29;;;;;;;3.25;1.02;;;;;;;14.12;64.99;101093.05;1717187;82;21062;-91
2022/06/14 06:05:07;;;;;;;2.95;0.80;;;;;;;14.20;64.84;101092.27;1717084;82;21461;-87
2022/06/14 06:07:40;;;;;;;4.90;1.50;;;;;;;14.22;64.14;101088.27;1718159;82;21057;-87
2022/06/14 06:10:19;;;;;;;3.55;0.82;;;;;;;14.23;64.05;101079.43;1715354;82;20999;-85
2022/06/14 06:12:57;;;;;;;4.72;1.15;;;;;;;14.26;63.99;101085.89;1714236;82;21586;-85
2022/06/14 06:15:32;;;;;;;3.77;1.02;;;;;;;14.33;64.03;101090.00;1719020;82;21018;-84
2022/06/14 06:18:04;;;;;;;3.08;0.80;;;;;;;14.40;63.81;101091.91;1717947;82;21030;-83
2022/06/14 06:20:39;;;;;;;7.40;1.22;;;;;;;14.43;63.65;101086.03;1712148;82;21010;-85
2022/06/14 06:23:27;;;;;;;6.42;1.30;;;;;;;14.49;63.54;101098.11;1715306;82;21070;-85
2022/06/14 06:26:05;;;;;;;3.08;0.80;;;;;;;14.54;63.28;101100.12;1712205;82;21133;-84
2022/06/14 06:28:39;;;;;;;4.50;1.10;;;;;;;14.56;63.03;101095.66;1701181;82;20987;-88
2022/06/14 06:31:23;;;;;;;4.45;1.20;;;;;;;14.61;63.03;101093.69;1712444;82;21031;-87
2022/06/14 06:33:55;;;;;;;5.25;1.10;;;;;;;14.73;63.09;101096.25;1713879;82;21107;-86
2022/06/14 06:36:54;;;;;;;7.70;1.20;;;;;;;14.85;62.87;101095.70;1715041;82;21599;-86
2022/06/14 06:39:53;;;;;;;5.78;1.27;;;;;;;14.89;62.71;101099.09;1714455;82;21676;-88
2022/06/14 06:42:35;;;;;;;4.80;1.30;;;;;;;14.89;62.54;101099.94;1714630;82;21543;-81
2022/06/14 06:45:16;;;;;;;5.20;1.55;;;;;;;14.91;62.58;101105.16;1651913;85;21060;-81
2022/06/14 06:48:01;;;;;;;4.22;1.00;;;;;;;14.96;62.45;101107.11;1660856;85;21040;-82
2022/06/14 06:50:45;;;;;;;4.97;1.32;;;;;;;15.04;62.48;101105.46;1653669;85;21517;-82
2022/06/14 06:53:22;;;;;;;3.72;1.20;;;;;;;15.10;62.46;101107.82;1661219;84;21584;-83
2022/06/14 06:56:15;;;;;;;3.70;1.30;;;;;;;15.09;62.20;101112.25;1649359;85;21088;-79
2022/06/14 06:59:05;;;;;;;4.85;1.00;;;;;;;15.07;62.06;101104.00;1660856;85;21047;-82
2022/06/14 07:01:40;;;;;;;;;;;;;;;15.09;62.02;101098.20;1660989;85;21075;-80
2022/06/14 07:05:02;;;;;;;3.20;1.10;;;;;;;15.15;61.84;101105.38;1660894;85;20584;-82
2022/06/14 07:06:58;;;;;;;5.40;1.12;;;;;;;15.19;61.94;101096.87;1658853;85;21226;-82
2022/06/14 07:09:43;;;;;;;6.33;1.60;;;;;;;15.30;62.03;101103.84;1660947;85;21477;-79
2022/06/14 07:12:18;;;;;;;4.97;1.20;;;;;;;15.33;61.46;101097.09;1650114;85;21064;-83
2022/06/14 07:15:15;;;;;;;4.65;1.30;;;;;;;15.38;61.51;101095.11;1660181;85;21525;-80
2022/06/14 07:18:14;;;;;;;4.75;1.00;;;;;;;15.51;61.56;101091.41;1658341;85;21080;-79
2022/06/14 07:20:52;;;;;;;3.00;0.95;;;;;;;15.65;61.38;101093.88;1649277;85;21252;-79
2022/06/14 07:23:46;;;;;;;2.95;0.93;;;;;;;15.75;60.86;101110.59;1659968;85;21067;-80
2022/06/14 07:26:24;;;;;;;5.28;1.05;;;;;;;15.73;60.35;101104.51;1659621;85;20997;-80
2022/06/14 07:29:16;;;;;;;5.20;0.98;;;;;;;15.74;60.07;101104.03;1660086;85;21019;-82
2022/06/14 07:31:57;;;;;;;1.85;0.70;;;;;;;15.74;59.51;101096.99;1660030;85;21012;-80
2022/06/14 07:34:27;;;;;;;4.58;0.95;;;;;;;15.84;59.60;101106.64;1659644;85;22052;-83
2022/06/14 07:37:23;;;;;;;4.35;0.90;;;;;;;15.91;59.15;101105.44;1659453;85;21305;-86
2022/06/14 07:40:18;;;;;;;2.67;0.55;;;;;;;16.01;59.15;101114.61;1657268;84;21517;-88
2022/06/14 07:42:54;;;;;;;2.12;0.88;;;;;;;16.13;58.88;101110.55;1668687;84;21047;-81
2022/06/14 07:45:31;;;;;;;5.15;0.80;;;;;;;16.20;58.46;101109.30;1659979;84;21095;-83
2022/06/14 07:48:10;;;;;;;3.92;1.00;;;;;;;16.17;57.92;101120.02;1659904;85;21144;-82
2022/06/14 07:50:42;;;;;;;3.42;0.98;;;;;;;16.17;57.92;101120.02;1659912;85;21012;-81
2022/06/14 07:53:18;;;;;;;4.15;0.70;;;;;;;16.13;57.47;101118.91;1659973;85;20924;-80
2022/06/14 07:55:56;;;;;;;2.22;0.68;;;;;;;16.02;57.03;101120.78;1660059;85;21071;-80
2022/06/14 07:58:43;;;;;;;2.00;0.65;;;;;;;15.91;56.31;101133.67;1659863;85;21118;-80
2022/06/14 08:01:40;;;;;;;4.17;0.60;;;;;;;15.88;56.24;101123.20;1659969;85;21138;-85
2022/06/14 08:04:29;;;;;;;3.15;0.62;;;;;;;15.98;56.11;101123.17;1640399;86;21244;-85
2022/06/14 08:07:04;;;;;;;2.37;0.70;;;;;;;16.06;55.61;101136.41;1640648;86;21104;-86
2022/06/14 08:09:45;;;;;;;3.72;0.60;;;;;;;16.08;55.35;101127.56;1651430;85;21474;-83
2022/06/14 08:12:41;;;;;;;2.42;0.70;;;;;;;16.13;55.32;101130.38;1659862;85;21070;-85
2022/06/14 08:15:16;;;;;;;3.25;0.90;;;;;;;16.26;55.20;101121.36;1657583;85;21140;-83
2022/06/14 08:18:03;;;;;;;1.98;0.60;;;;;;;16.38;55.13;101127.83;1657665;85;20937;-84
2022/06/14 08:20:57;;;;;;;4.08;0.80;;;;;;;16.46;54.97;101130.51;1643390;85;20967;-84
2022/06/14 08:23:47;;;;;;;2.85;0.60;;;;;;;16.44;54.54;101131.05;1654584;85;21071;-85
2022/06/14 08:26:26;;;;;;;;;;;;;;;16.37;54.04;101130.94;1657193;85;21064;-85
2022/06/14 08:29:17;;;;;;;1.50;0.45;;;;;;;16.31;53.46;101121.14;1654754;85;21952;-87
2022/06/14 08:32:14;;;;;;;1.95;0.55;;;;;;;16.38;53.58;101115.92;1654403;85;21056;-85
2022/06/14 08:35:05;;;;;;;3.25;0.60;;;;;;;16.46;53.44;101124.33;1654501;85;21482;-85
2022/06/14 08:37:50;;;;;;;3.92;0.68;;;;;;;16.59;53.24;101118.81;1654700;85;21111;-88
2022/06/14 08:40:58;;;;;;;1.52;0.57;;;;;;;16.72;52.73;101113.77;1654424;85;21028;-85
2022/06/14 08:43:37;;;;;;;2.10;0.45;;;;;;;16.76;52.33;101127.22;1654642;85;22103;-84
2022/06/14 08:46:55;;;;;;;1.95;0.50;;;;;;;16.75;51.90;101118.90;1654687;85;21533;-87
2022/06/14 08:50:06;;;;;;;2.47;0.70;;;;;;;16.76;51.38;101123.25;1654687;85;21501;-85
2022/06/14 08:52:59;;;;;;;4.33;0.60;;;;;;;16.94;51.68;101126.79;1592564;87;21067;-85
2022/06/14 08:56:23;;;;;;;3.95;0.80;;;;;;;16.94;51.68;101126.79;1651635;85;21625;-83
2022/06/14 08:59:04;;;;;;;3.02;0.65;;;;;;;17.12;51.19;101108.58;1654655;85;21522;-85
2022/06/14 09:02:03;;;;;;;2.42;0.62;;;;;;;17.30;51.12;101116.03;1654580;85;21051;-84
2022/06/14 09:04:52;;;;;;;1.57;0.53;;;;;;;17.39;50.84;101113.36;1654558;85;21095;-85
2022/06/14 09:07:56;;;;;;;4.13;0.67;;;;;;;17.37;50.43;101111.25;1655293;85;21005;-84
2022/06/14 09:11:02;;;;;;;2.77;0.70;;;;;;;17.39;50.25;101112.88;1654578;85;21293;-83
2022/06/14 09:14:07;;;;;;;2.95;0.62;;;;;;;17.53;50.16;101111.28;1654846;85;21109;-83
2022/06/14 09:17:14;;;;;;;6.45;0.95;;;;;;;17.55;50.11;101110.26;1654660;85;21055;-85
2022/06/14 09:19:56;;;;;;;3.45;0.80;;;;;;;17.72;50.01;101116.43;1633802;85;21017;-85
2022/06/14 09:22:40;;;;;;;2.60;0.70;;;;;;;17.95;49.86;101119.14;1682335;84;21536;-85
2022/06/14 09:25:38;;;;;;;1.92;0.47;;;;;;;18.05;49.43;101118.54;1669033;84;21054;-86
2022/06/14 09:28:29;;;;;;;4.20;0.62;;;;;;;18.14;48.93;101117.63;1681936;84;21133;-83
2022/06/14 09:31:10;;;;;;;3.47;0.70;;;;;;;17.93;48.20;101112.62;1683172;84;21063;-86
2022/06/14 09:34:14;;;;;;;2.98;0.93;;;;;;;17.94;48.42;101108.16;1680860;84;21083;-86
2022/06/14 09:36:53;;;;;;;2.52;0.78;;;;;;;18.00;48.24;101098.05;1683043;84;22077;-87
2022/06/14 09:39:42;;;;;;;3.12;0.60;;;;;;;17.99;48.19;101098.16;1682646;84;21062;-87
2022/06/14 09:42:40;;;;;;;1.67;0.50;;;;;;;17.93;47.84;101104.66;1683371;84;21047;-86
2022/06/14 09:45:25;;;;;;;3.92;0.50;;;;;;;17.90;47.51;101093.34;1682027;84;21079;-85
2022/06/14 09:48:14;;;;;;;3.02;0.60;;;;;;;17.84;46.81;101091.42;1683007;84;21725;-84
2022/06/14 09:50:59;;;;;;;2.22;0.70;;;;;;;17.92;46.91;101096.30;1682877;84;20991;-85
2022/06/14 09:53:50;;;;;;;3.35;0.60;;;;;;;18.07;46.78;101083.98;1682419;84;21081;-85
2022/06/14 09:56:35;;;;;;;2.08;0.70;;;;;;;18.16;46.58;101093.20;1682679;84;21250;-84
2022/06/14 09:59:17;;;;;;;1.77;0.53;;;;;;;18.17;46.46;101086.46;1681950;84;21042;-84
2022/06/14 10:02:01;;;;;;;2.98;0.60;;;;;;;18.30;46.31;101091.92;1681874;84;21066;-86
2022/06/14 10:04:34;;;;;;;1.75;0.68;;;;;;;18.42;46.23;101088.54;1681643;84;21078;-83
2022/06/14 10:07:23;;;;;;;1.75;0.50;;;;;;;18.56;45.85;101091.70;1683135;84;21079;-84
2022/06/14 10:10:15;;;;;;;4.12;0.70;;;;;;;18.58;45.79;101091.15;1679704;84;21125;-83
2022/06/14 10:13:14;;;;;;;2.87;0.70;;;;;;;18.71;45.62;101097.92;1680199;83;21646;-83
2022/06/14 10:15:58;;;;;;;3.52;0.72;;;;;;;18.86;45.44;101105.46;1683033;83;21568;-82
2022/06/14 10:18:36;;;;;;;5.22;1.20;;;;;;;18.89;44.91;101106.59;1668436;83;20970;-85
2022/06/14 10:21:35;;;;;;;2.00;0.50;;;;;;;19.01;44.72;101093.03;1676871;82;21114;-89
2022/06/14 10:24:21;;;;;;;5.75;1.10;;;;;;;19.19;44.70;101094.57;1710392;82;20971;-89
2022/06/14 10:30:35;;;;;;;3.27;0.68;;;;;;;19.23;43.94;101087.25;1716050;82;21034;-83
2022/06/14 10:33:42;;;;;;;3.15;0.68;;;;;;;19.33;43.50;101098.55;1714244;82;21070;-92
2022/06/14 10:36:52;;;;;;;2.33;0.78;;;;;;;19.53;43.33;101096.44;1707323;83;21004;-83
2022/06/14 10:39:58;;;;;;;4.33;0.80;;;;;;;19.83;42.95;101093.17;1703027;82;21489;-89
2022/06/14 10:43:10;;;;;;;7.12;0.95;;;;;;;19.70;42.77;101092.24;1710157;82;20960;-87
2022/06/14 10:45:54;;;;;;;1.98;0.80;;;;;;;19.53;42.62;101085.80;1702956;82;20991;-89
2022/06/14 10:48:53;;;;;;;3.58;0.70;;;;;;;19.53;42.38;101090.63;1710811;82;21097;-91
2022/06/14 10:52:07;;;;;;;2.95;0.90;;;;;;;19.56;42.57;101083.79;1707684;82;21047;-91
2022/06/14 10:55:27;;;;;;;2.50;0.78;;;;;;;20.20;42.81;101089.90;1706406;82;21174;-95
2022/06/14 10:58:23;;;;;;;1.90;0.70;;;;;;;20.84;41.99;101082.92;1694924;82;21046;-91
2022/06/14 11:00:58;;;;;;;3.08;0.90;;;;;;;20.70;41.28;101082.99;1693984;82;21548;-92
2022/06/14 11:03:55;;;;;;;4.33;1.20;;;;;;;20.34;41.17;101092.97;1711840;82;21103;-90
2022/06/14 11:07:02;;;;;;;4.00;0.70;;;;;;;19.90;40.69;101090.10;1698812;82;21074;-87
2022/06/14 11:09:47;;;;;;;1.87;0.90;;;;;;;19.46;41.03;101098.64;1707876;82;21132;-88
2022/06/14 11:12:49;;;;;;;3.00;0.80;;;;;;;19.87;41.62;101090.30;1708772;82;21026;-90
2022/06/14 11:15:27;;;;;;;4.62;0.95;;;;;;;20.34;41.27;101091.64;1706302;82;21039;-93
2022/06/14 11:18:16;;;;;;;;;;;;;;;20.59;41.40;101101.52;1695698;82;21103;-89
2022/06/14 11:21:05;;;;;;;4.10;0.82;;;;;;;20.96;40.96;101089.20;1709730;82;20481;-94
2022/06/14 11:23:43;;;;;;;4.37;0.88;;;;;;;21.43;40.79;101093.51;1714209;82;21311;-92
2022/06/14 11:26:34;;;;;;;4.37;0.98;;;;;;;21.76;39.97;101087.55;1717093;82;20991;-93
2022/06/14 11:29:11;;;;;;;3.70;0.90;;;;;;;21.81;39.82;101080.06;1727712;82;34095;-95
2022/06/14 11:32:02;;;;;;;2.52;0.80;;;;;;;21.95;39.39;101089.23;1693166;82;21094;-94
2022/06/14 11:34:55;;;;;;;5.37;0.98;;;;;;;21.65;39.20;101098.15;1715968;83;21018;-92
2022/06/14 11:37:53;;;;;;;3.42;0.88;;;;;;;21.22;38.34;101105.17;1721319;82;21035;-89
2022/06/14 11:40:39;;;;;;;3.42;0.95;;;;;;;20.76;38.99;101097.70;1713038;82;21560;-91
2022/06/14 11:43:45;;;;;;;3.50;0.85;;;;;;;20.73;39.21;101094.80;1713774;82;21031;-92
2022/06/14 11:47:18;;;;;;;2.87;0.90;;;;;;;20.99;39.41;101094.80;1723997;82;21003;-93
2022/06/14 11:50:28;;;;;;;2.92;0.88;;;;;;;21.22;39.09;101083.84;1704515;82;21046;-92
2022/06/14 11:53:27;;;;;;;2.80;0.85;;;;;;;20.89;38.29;101093.23;1713999;82;21164;-93
2022/06/14 11:56:45;;;;;;;;;;;;;;;;;;;;;
2022/06/14 11:59:44;;;;;;;3.67;1.10;;;;;;;21.25;39.55;101102.28;1709269;82;21046;-93
2022/06/14 12:02:33;;;;;;;2.47;0.72;;;;;;;21.83;39.48;101096.30;1689126;82;21610;-92
2022/06/14 12:05:13;;;;;;;5.78;0.95;;;;;;;22.32;38.51;101089.17;1712249;82;21035;-92
2022/06/14 12:08:17;;;;;;;3.85;0.88;;;;;;;22.04;37.80;101092.55;1711320;82;21038;-92
2022/06/14 12:11:32;;;;;;;4.97;1.10;;;;;;;21.69;37.71;101100.47;1706714;82;21529;-91
2022/06/14 12:14:36;;;;;;;4.60;1.30;;;;;;;21.52;37.99;101097.69;1712386;82;21360;-90
2022/06/14 12:17:42;;;;;;;2.72;0.95;;;;;;;21.99;38.55;101097.37;1706699;82;21536;-91
2022/06/14 12:20:34;;;;;;;3.70;0.90;;;;;;;22.26;37.75;101087.82;1710614;82;21042;-90
2022/06/14 12:23:20;;;;;;;3.83;1.25;;;;;;;22.16;37.85;101083.25;1698411;82;21465;-91
2022/06/14 12:29:25;;;;;;;;;;;;;;;21.74;37.57;101092.13;1701498;82;21030;-90
2022/06/14 12:32:20;;;;;;;4.67;1.40;;;;;;;21.69;37.54;101107.13;1693807;82;20194;-90
2022/06/14 12:35:11;;;;;;;3.70;0.98;;;;;;;21.66;37.82;101097.17;1701924;82;21567;-91
2022/06/14 12:38:01;;;;;;;5.97;1.12;;;;;;;21.93;37.75;101091.16;1709610;82;21323;-92
2022/06/14 12:40:59;;;;;;;8.03;1.35;;;;;;;21.97;37.46;101093.10;1681136;82;21070;-91
2022/06/14 12:44:03;;;;;;;5.28;0.98;;;;;;;22.25;37.63;101092.80;1710119;82;21591;-92
2022/06/14 12:46:46;;;;;;;4.90;0.98;;;;;;;22.62;37.58;101081.14;1713371;82;21591;-90
2022/06/14 12:49:43;;;;;;;3.90;1.05;;;;;;;22.64;36.99;101084.06;1722976;82;20983;-90
2022/06/14 12:52:42;;;;;;;2.87;0.93;;;;;;;22.54;36.72;101080.87;1710693;82;21086;-91
2022/06/14 12:58:56;;;;;;;3.98;1.00;;;;;;;22.02;36.48;101087.80;1700460;82;21516;-92
2022/06/14 13:01:54;;;;;;;3.62;0.88;;;;;;;21.75;36.65;101084.00;1724164;82;21060;-92
2022/06/14 13:04:41;;;;;;;3.33;1.10;;;;;;;21.86;37.08;101079.22;1686287;82;21509;-90
2022/06/14 13:07:43;;;;;;;4.17;1.20;;;;;;;21.87;36.83;101080.94;1726658;82;21075;-91
2022/06/14 13:10:48;;;;;;;7.00;1.05;;;;;;;21.82;37.02;101081.75;1709676;82;21065;-84
2022/06/14 13:13:50;;;;;;;5.60;1.02;;;;;;;21.77;36.93;101076.74;1724161;82;20995;-90
2022/06/14 13:20:09;;;;;;;6.35;1.07;;;;;;;21.92;36.71;101084.13;1668930;84;21334;-84